Latest Coastal Weather Observations for Kowanyama

IDQ60701

Issued at 11:41 pm EST Thursday 24 May 2018 (issued every 10 minutes, with the page automatically refreshed every 10 minutes)

About coastal observations | Map of coastal stations | Coastal observations for QLD | Marine services | Other Formats
Station Details ID: 029038 Name: KOWANYAMA AIRPORT Lat: -15.48 Lon: 141.75 Height: 9.6 m
Data from the previous 72 hours. | See also: Recent months at Kowanyama
Date/Time
EST
Temp
°C
Wind Pressure Rain since
9am
mm
Weather Cloud Vis
km
Sea
Height
m
Swell
Dir  Spd
kts
Gust
kts
hPa Trend Height
m
Period
s
Dir
24/11:30pm 25.0 SSE 4 5 1013.8 - 0.0 - Partly cloudy 10 - - - -
24/11:00pm 24.5 SSW 4 6 1013.7 - 0.0 - Partly cloudy 10 - - - -
24/10:30pm 23.8 CALM 0 4 1013.7 - 0.0 - - 10 - - - -
24/10:00pm 24.6 NE 3 4 1013.4 - 0.0 - Partly cloudy 10 - - - -
24/09:30pm 25.2 CALM 0 0 1013.2 - 0.0 - Cloudy 10 - - - -
24/09:00pm 26.0 SE 3 4 1013.1 - 0.0 - Cloudy 10 - - - -
24/08:30pm 26.4 SE 3 4 1012.7 - 0.0 - - 10 - - - -
24/08:00pm 26.2 SE 4 4 1012.3 - 0.0 - - 10 - - - -
24/07:30pm 27.2 SE 4 5 1011.6 - 0.0 - - 10 - - - -
24/07:00pm 27.2 SE 3 4 1011.4 - 0.0 - - 10 - - - -
24/06:30pm 27.9 SE 3 4 1011.0 - 0.0 - - 10 - - - -
24/06:00pm 29.2 ESE 5 7 1010.6 - 0.0 - Cloudy 10 - - - -
24/05:30pm 30.0 ESE 5 7 1010.4 - 0.0 - - 10 - - - -
24/05:00pm 30.6 ESE 6 9 1010.0 - 0.0 - - 10 - - - -
24/04:30pm 31.8 SE 10 13 1009.8 - 0.0 - - 10 - - - -
24/04:00pm 31.9 ESE 7 10 1009.7 - 0.0 - - 10 - - - -
24/03:30pm 31.7 SE 9 11 1009.8 - 0.0 - - 10 - - - -
24/03:00pm 31.7 ESE 8 11 1009.9 - 0.0 - - 10 - - - -
24/02:30pm 31.8 ESE 7 12 1010.1 - 0.0 - - 10 - - - -
24/02:00pm 31.6 ESE 6 11 1010.4 - 0.0 - - 10 - - - -
24/01:30pm 30.6 ESE 9 13 1011.0 - 0.0 - - 10 - - - -
24/01:00pm 30.9 ESE 8 14 1011.5 - 0.0 - - 10 - - - -
24/12:30pm 30.0 ESE 7 12 1012.1 - 0.0 - - 10 - - - -
24/12:00pm 29.4 ENE 9 15 1012.7 - 0.0 - - 10 - - - -
24/11:30am 29.0 E 9 13 1013.4 - 0.0 - - 10 - - - -
24/11:00am 27.7 ESE 9 16 1013.9 - 0.0 - - 10 - - - -
24/10:30am 26.5 ESE 11 15 1014.2 - 0.0 - - 10 - - - -
24/10:00am 26.0 ESE 11 15 1014.6 - 0.0 - - 10 - - - -
24/09:30am 25.5 ESE 8 13 1014.9 - 0.0 - - 10 - - - -
24/09:00am 24.6 ESE 9 13 1014.8 - 0.0 - - 10 - - - -
24/08:30am 23.9 E 6 10 1014.5 - 0.0 - - 10 - - - -
24/08:00am 22.6 E 6 8 1014.4 - 0.0 - - 10 - - - -
24/07:30am 21.3 E 5 6 1014.1 - 0.0 - - 10 - - - -
24/07:00am 20.6 E 5 7 1013.7 - 0.0 - - 10 - - - -
24/06:30am 19.7 ESE 4 4 1013.4 - 0.0 - - 10 - - - -
24/06:00am 20.0 CALM 0 0 1013.0 - 0.0 - - 10 - - - -
24/05:30am 19.5 SE 3 3 1012.9 - 0.0 - - 10 - - - -
24/05:00am 20.4 SE 3 3 1012.9 - 0.0 - - 10 - - - -
24/04:30am 21.5 E 3 5 1012.8 - 0.0 - - 10 - - - -
24/04:00am 21.4 E 3 5 1012.9 - 0.0 - Partly cloudy 10 - - - -
24/03:30am 20.7 E 4 5 1012.9 - 0.0 - Partly cloudy 10 - - - -
24/03:00am 20.8 CALM 0 0 1013.1 - 0.0 - - 10 - - - -
24/02:30am 21.5 CALM 0 3 1013.3 - 0.0 - - 10 - - - -
24/02:00am 21.7 SE 3 5 1013.5 - 0.0 - - 10 - - - -
24/01:30am 22.1 SE 3 3 1013.8 - 0.0 - - 10 - - - -
24/01:00am 21.7 SSE 2 3 1013.8 - 0.0 - - 10 - - - -
24/12:30am 22.5 ESE 3 4 1014.0 - 0.0 - - 10 - - - -
24/12:28am 22.5 ESE 3 4 1014.0 - 0.0 - - 8 - - - -
24/12:11am 22.7 SE 4 5 1014.2 - 0.0 - - 5 - - - -
24/12:00am 23.2 SE 3 4 1014.2 - 0.0 - Mostly clear 10 - - - -
 
Date/Time
EST
Temp
°C
Wind Pressure Rain since
9am
mm
Weather Cloud Vis
km
Sea
Height
m
Swell
Dir  Spd
kts
Gust
kts
hPa Trend Height
m
Period
s
Dir
23/11:30pm 23.1 CALM 0 0 1014.6 - 0.0 - Partly cloudy 10 - - - -
23/11:00pm 22.8 CALM 0 0 1014.4 - 0.0 - Partly cloudy 10 - - - -
23/10:30pm 23.5 E 2 3 1014.2 - 0.0 - Partly cloudy 10 - - - -
23/10:00pm 24.0 CALM 0 3 1014.1 - 0.0 - Partly cloudy 10 - - - -
23/09:30pm 24.3 SSW 4 5 1014.1 - 0.0 - Partly cloudy 10 - - - -
23/09:00pm 24.9 SW 5 6 1014.2 - 0.0 - Mostly cloudy 10 - - - -
23/08:30pm 25.4 SW 6 8 1014.0 - 0.0 - Partly cloudy 10 - - - -
23/08:00pm 25.9 SW 5 7 1013.8 - 0.0 - Partly cloudy 10 - - - -
23/07:30pm 26.3 WSW 5 6 1013.4 - 0.0 - Cloudy 10 - - - -
23/07:00pm 27.1 WNW 4 6 1013.0 - 0.0 - Partly cloudy 10 - - - -
23/06:30pm 27.8 CALM 0 0 1012.7 - 0.0 - Partly cloudy 10 - - - -
23/06:00pm 29.5 SE 3 4 1012.7 - 0.0 - Cloudy 10 - - - -
23/05:30pm 30.1 ESE 4 5 1012.3 - 0.0 - Partly cloudy 10 - - - -
23/05:00pm 30.7 ESE 5 6 1012.1 - 0.0 - Partly cloudy 10 - - - -
23/04:30pm 30.9 ESE 7 9 1011.8 - 0.0 - Cloudy 10 - - - -
23/04:00pm 31.0 SE 8 11 1011.7 - 0.0 - Cloudy 10 - - - -
23/03:30pm 31.3 SE 7 10 1011.7 - 0.0 - Cloudy 10 - - - -
23/03:00pm 31.1 SE 7 12 1011.8 - 0.0 - Cloudy 10 - - - -
23/02:30pm 31.0 ESE 6 9 1012.0 - 0.0 - Partly cloudy 10 - - - -
23/02:00pm 31.6 ESE 5 8 1012.4 - 0.0 - Cloudy 10 - - - -
23/01:30pm 30.8 SE 9 14 1012.6 - 0.0 - Partly cloudy 10 - - - -
23/01:00pm 30.8 ESE 8 12 1013.0 - 0.0 - Partly cloudy 10 - - - -
23/12:30pm 29.9 E 8 15 1013.5 - 0.0 - - 10 - - - -
23/12:00pm 30.2 ENE 8 11 1013.9 - 0.0 - - 10 - - - -
23/11:30am 29.0 ESE 7 11 1014.4 - 0.0 - - 10 - - - -
23/11:00am 28.8 ESE 9 13 1014.6 - 0.0 - - 10 - - - -
23/10:30am 27.7 ESE 7 11 1014.9 - 0.0 - - 10 - - - -
23/10:00am 26.8 ESE 9 12 1015.3 - 0.0 - - 10 - - - -
23/09:30am 26.1 E 8 11 1015.4 - 0.0 - - 10 - - - -
23/09:00am 25.8 ESE 7 11 1015.5 - 0.0 - - 10 - - - -
23/08:30am 25.1 E 7 11 1015.4 - 0.0 - - 10 - - - -
23/08:00am 23.6 SE 6 8 1015.3 - 0.0 - Partly cloudy 10 - - - -
23/07:30am 21.4 SSE 4 5 1015.3 - 0.0 - - 10 - - - -
23/07:00am 20.8 SE 2 3 1014.9 - 0.0 - - 10 - - - -
23/06:30am 21.3 SSE 1 3 1014.5 - 0.0 - Partly cloudy 10 - - - -
23/06:00am 22.2 SE 4 5 1014.3 - 0.0 - Partly cloudy 10 - - - -
23/05:30am 22.8 CALM 0 4 1014.3 - 0.0 - Cloudy 10 - - - -
23/05:00am 22.6 CALM 0 0 1014.2 - 0.0 - Cloudy 10 - - - -
23/04:30am 22.1 SE 1 3 1014.1 - 0.0 - Partly cloudy 10 - - - -
23/04:00am 22.5 ESE 3 4 1014.0 - 0.0 - Partly cloudy 10 - - - -
23/03:30am 23.3 SE 4 4 1013.9 - 0.0 - Partly cloudy 10 - - - -
23/03:00am 23.1 SSE 4 4 1014.1 - 0.0 - Mostly clear 10 - - - -
23/02:30am 24.3 SE 4 5 1014.0 - 0.0 - - 10 - - - -
23/02:00am 25.0 SSE 5 7 1014.1 - 0.0 - Partly cloudy 10 - - - -
23/01:30am 25.8 S 5 7 1014.5 - 0.0 - Partly cloudy 10 - - - -
23/01:00am 26.2 S 2 4 1014.6 - 0.0 - Cloudy 10 - - - -
23/12:30am 26.7 S 5 7 1014.5 - 0.0 - Cloudy 10 - - - -
23/12:00am 26.6 SSE 5 6 1014.7 - 0.0 - Mostly cloudy 10 - - - -
 
Date/Time
EST
Temp
°C
Wind Pressure Rain since
9am
mm
Weather Cloud Vis
km
Sea
Height
m
Swell
Dir  Spd
kts
Gust
kts
hPa Trend Height
m
Period
s
Dir
22/11:30pm 26.7 SE 4 4 1014.8 - 0.0 - Cloudy 10 - - - -
22/11:00pm 27.2 SE 3 4 1015.0 - 0.0 - Cloudy 10 - - - -
22/10:30pm 27.4 SSE 4 5 1015.0 - 0.0 - Cloudy 10 - - - -
22/10:00pm 27.8 SSE 5 7 1015.1 - 0.0 - Cloudy 10 - - - -
22/09:30pm 28.0 SSE 5 8 1015.1 - 0.0 - Cloudy 10 - - - -
22/09:00pm 27.7 S 3 8 1014.9 - 0.0 - Cloudy 10 - - - -
22/08:30pm 27.8 SE 3 4 1014.4 - 0.0 - Cloudy 10 - - - -
22/08:00pm 28.3 SE 4 5 1014.1 - 0.0 - Cloudy 10 - - - -
22/07:30pm 28.0 SSE 4 5 1013.9 - 0.0 - Cloudy 10 - - - -
22/07:00pm 28.9 E 4 5 1013.6 - 0.0 - Cloudy 10 - - - -
22/06:30pm 28.9 ENE 4 5 1013.2 - 0.0 - Cloudy 10 - - - -
22/06:00pm 29.5 ENE 4 6 1012.9 - 0.0 - Cloudy 10 - - - -
22/05:30pm 29.9 E 4 5 1012.5 - 0.0 - Cloudy 10 - - - -
22/05:00pm 30.3 ESE 5 7 1012.2 - 0.0 - Cloudy 10 - - - -
22/04:30pm 30.9 ESE 6 7 1012.1 - 0.0 - Cloudy 10 - - - -
22/04:00pm 31.0 ESE 6 10 1011.9 - 0.0 - Partly cloudy 10 - - - -
22/03:30pm 30.9 ESE 7 11 1012.1 - 0.0 - Cloudy 10 - - - -
22/03:00pm 31.4 ESE 8 13 1012.3 - 0.0 - Partly cloudy 10 - - - -
22/02:30pm 31.0 ESE 7 9 1012.3 - 0.0 - - 10 - - - -
22/02:00pm 31.3 ESE 7 12 1012.8 - 0.0 - - 10 - - - -
22/01:30pm 30.7 SE 7 10 1013.0 - 0.0 - - 10 - - - -
22/01:00pm 30.6 SE 9 16 1013.4 - 0.0 - - 10 - - - -
22/12:30pm 29.7 ESE 7 9 1014.0 - 0.0 - - 10 - - - -
22/12:00pm 30.0 E 6 12 1014.4 - 0.0 - - 10 - - - -
22/11:30am 29.1 ESE 8 13 1014.9 - 0.0 - - 10 - - - -
22/11:00am 28.2 ESE 7 11 1015.4 - 0.0 - - 10 - - - -
22/10:30am 27.3 ESE 8 12 1015.9 - 0.0 - - 10 - - - -
22/10:00am 26.7 E 7 11 1016.2 - 0.0 - - 10 - - - -
22/09:30am 25.8 E 8 13 1016.4 - 0.0 - - 10 - - - -
22/09:00am 25.3 ESE 8 12 1016.5 - 0.0 - - 10 - - - -
22/08:30am 24.4 ESE 7 9 1016.1 - 0.0 - - 10 - - - -
22/08:00am 23.5 ESE 7 10 1015.9 - 0.0 - - 10 - - - -
22/07:30am 22.5 ESE 6 9 1015.5 - 0.0 - - 10 - - - -
22/07:00am 21.4 ESE 5 6 1015.3 - 0.0 - - 10 - - - -
22/06:30am 21.9 ESE 5 7 1015.0 - 0.0 - - 10 - - - -
22/06:00am 22.1 ESE 5 8 1014.6 - 0.0 - - 10 - - - -
22/05:30am 21.8 ESE 5 7 1014.4 - 0.0 - - 10 - - - -
22/05:00am 21.3 ESE 5 6 1014.4 - 0.0 - Partly cloudy 10 - - - -
22/04:30am 22.3 ESE 4 6 1014.2 - 0.0 - - 10 - - - -
22/04:00am 22.3 SE 5 5 1014.1 - 0.0 - - 10 - - - -
22/03:30am 22.5 SSE 4 5 1014.1 - 0.0 - - 10 - - - -
22/03:00am 23.2 SSE 4 5 1014.3 - 0.0 - - 10 - - - -
22/02:30am 23.9 SE 5 6 1014.3 - 0.0 - - 10 - - - -
22/02:00am 24.4 SE 5 7 1014.4 - 0.0 - - 10 - - - -
22/01:30am 25.3 SSE 7 9 1014.3 - 0.0 - Cloudy 10 - - - -
22/01:00am 26.0 SSE 9 13 1014.3 - 0.0 - Cloudy 10 - - - -
22/12:30am 25.9 S 8 13 1014.4 - 0.0 - Cloudy 10 - - - -
22/12:00am 26.1 S 9 11 1014.8 - 0.0 - Cloudy 10 - - - -

Other Formats:

Comma delimited format used in spreadsheet applications
http://www.bom.gov.au/fwo/IDQ60701/IDQ60701.94268.axf

JavaScript Object Notation format (JSON) in row-major order
http://www.bom.gov.au/fwo/IDQ60701/IDQ60701.94268.json